Latest Weather Observations for Laverton

IDW60801

Issued at 8:02 pm WST Tuesday 27 January 2015 (issued every 30 minutes, with the page automatically refreshed every 10 minutes)

About weather observations | Map of weather stations | Latest weather observations for WA | Other Formats
Station Details ID: 012305 Name: LAVERTON AERO Lat: -28.61 Lon: 122.42 Height: 464.3 m
Data from the previous 72 hours. | See also: Recent months at Laverton
Date/Time
WST
Temp
°C
App
Temp
°C
Dew
Point
Rel
Hum
%
Delta-T
°C
Wind Press
QNH
hPa
Press
MSL
hPa
Rain
since 9 am
mm
Dir
 
Spd
km/h
Gust
km/h
Spd
kts
Gust
kts
27/08:00pm 31.3 25.2 6.4 21 13.7 E 28 41 15 22 1010.9 1007.6 0.0
27/07:30pm 31.6 25.5 6.6 21 13.8 E 28 35 15 19 1010.5 1007.1 0.0
27/07:00pm 31.8 26.3 7.5 22 13.6 E 26 32 14 17 1010.3 1006.9 0.0
27/06:30pm 32.1 26.5 7.0 21 13.9 ESE 26 35 14 19 1010.2 1006.8 0.0
27/06:00pm 32.3 26.3 7.2 21 14.0 ESE 28 37 15 20 1010.0 1006.6 0.0
27/05:30pm 32.7 27.6 7.5 21 14.1 ESE 24 32 13 17 1009.7 1006.3 0.0
27/05:00pm 33.0 28.5 7.1 20 14.5 ESE 20 30 11 16 1009.5 1006.2 0.0
27/04:30pm 33.1 28.6 7.1 20 14.5 E 20 32 11 17 1009.5 1006.2 0.0
27/04:00pm 33.1 27.9 7.1 20 14.6 E 24 33 13 18 1009.7 1006.3 0.0
27/03:30pm 33.6 29.1 6.8 19 14.9 ENE 20 26 11 14 1009.8 1006.4 0.0
27/03:00pm 34.3 29.9 7.4 19 15.2 E 20 32 11 17 1010.1 1006.7 0.0
27/02:30pm 33.6 29.3 6.8 19 14.9 ESE 19 30 10 16 1010.3 1006.9 0.0
27/02:00pm 33.9 29.4 6.3 18 15.3 ESE 19 32 10 17 1010.5 1007.1 0.0
27/01:30pm 32.4 28.4 6.6 20 14.3 E 17 35 9 19 1010.9 1007.6 0.0
27/01:00pm 33.0 28.5 6.3 19 14.7 ESE 19 30 10 16 1011.3 1008.0 0.0
27/12:30pm 32.3 28.3 6.5 20 14.2 ENE 17 30 9 16 1011.7 1008.4 0.0
27/12:00pm 31.4 26.4 6.5 21 13.7 ENE 22 35 12 19 1012.2 1008.8 0.0
27/11:30am 30.6 25.1 5.8 21 13.4 ENE 24 35 13 19 1012.5 1009.1 0.0
27/11:00am 29.6 24.6 6.3 23 12.6 E 22 32 12 17 1012.9 1009.6 0.0
27/10:30am 29.9 25.2 5.9 22 12.9 ENE 20 35 11 19 1013.5 1010.2 0.0
27/10:00am 28.9 23.4 5.7 23 12.4 ENE 24 33 13 18 1013.6 1010.3 0.0
27/09:30am 27.9 21.9 5.5 24 11.9 E 26 35 14 19 1013.7 1010.4 0.0
27/09:00am 26.6 20.2 5.0 25 11.3 E 28 39 15 21 1014.0 1010.7 0.0
27/08:30am 25.4 18.9 4.5 26 10.7 E 28 39 15 21 1013.9 1010.6 0.0
27/08:00am 25.1 18.8 3.7 25 10.8 E 26 33 14 18 1014.2 1010.8 0.0
27/07:30am 24.4 18.3 2.5 24 10.8 E 24 32 13 17 1014.4 1011.0 0.0
27/07:00am 23.9 17.4 2.7 25 10.4 E 26 35 14 19 1013.8 1010.5 0.0
27/06:30am 23.5 18.1 2.4 25 10.3 E 20 30 11 16 1013.8 1010.5 0.0
27/06:00am 23.2 18.7 2.1 25 10.2 ENE 15 20 8 11 1013.6 1010.3 0.0
27/05:30am 23.2 17.0 2.1 25 10.2 ENE 24 32 13 17 1013.1 1009.8 0.0
27/05:00am 23.2 17.4 2.1 25 10.2 ENE 22 33 12 18 1012.5 1009.1 0.0
27/04:30am 23.3 15.4 2.2 25 10.2 E 33 46 18 25 1011.4 1008.1 0.0
27/04:00am 23.5 14.8 1.8 24 10.5 E 37 48 20 26 1011.2 1007.9 0.0
27/03:30am 23.8 15.4 1.4 23 10.7 E 35 44 19 24 1011.2 1007.9 0.0
27/03:00am 24.1 16.1 1.7 23 10.8 E 33 46 18 25 1011.3 1008.0 0.0
27/02:30am 24.3 16.0 1.9 23 10.9 E 35 44 19 24 1011.4 1008.1 0.0
27/02:00am 24.6 16.3 2.1 23 11.0 E 35 46 19 25 1011.5 1008.2 0.0
27/01:30am 25.1 17.2 2.5 23 11.2 E 33 46 18 25 1011.8 1008.5 0.0
27/01:00am 25.3 17.7 2.7 23 11.2 E 32 43 17 23 1012.4 1009.0 0.0
27/12:30am 26.0 18.3 3.3 23 11.4 E 33 43 18 23 1012.4 1009.0 0.0
27/12:00am 26.3 19.7 4.1 24 11.4 E 28 39 15 21 1012.5 1009.1 0.0
 
Date/Time
WST
Temp
°C
App
Temp
°C
Dew
Point
Rel
Hum
%
Delta-T
°C
Wind Press
QNH
hPa
Press
MSL
hPa
Rain
since 9 am
mm
Dir
 
Spd
km/h
Gust
km/h
Spd
kts
Gust
kts
26/11:30pm 26.7 19.8 4.5 24 11.5 E 30 39 16 21 1012.6 1009.3 0.0
26/11:00pm 27.1 21.1 5.4 25 11.4 E 26 37 14 20 1012.8 1009.5 0.0
26/10:30pm 27.5 21.2 5.7 25 11.6 E 28 37 15 20 1013.1 1009.8 0.0
26/10:00pm 27.9 21.3 6.1 25 11.7 E 30 46 16 25 1012.6 1009.3 0.0
26/09:58pm 27.9 21.7 6.1 25 11.7 E 28 46 15 25 1012.6 1009.3 0.0
26/09:30pm 28.3 21.8 6.4 25 11.8 E 30 37 16 20 1012.6 1009.3 0.0
26/09:00pm 28.8 21.8 6.2 24 12.2 E 32 43 17 23 1012.3 1008.9 0.0
26/08:30pm 29.3 22.8 6.7 24 12.3 E 30 39 16 21 1011.8 1008.5 0.0
26/08:00pm 29.8 23.8 7.1 24 12.5 E 28 37 15 20 1011.7 1008.4 0.0
26/07:30pm 30.3 24.3 6.9 23 12.9 E 28 39 15 21 1011.6 1008.3 0.0
26/07:00pm 30.8 24.1 7.3 23 13.0 E 32 43 17 23 1011.3 1008.0 0.0
26/06:30pm 31.6 25.3 7.3 22 13.5 E 30 37 16 20 1011.1 1007.8 0.0
26/06:00pm 32.3 26.3 7.2 21 14.0 ENE 28 37 15 20 1010.9 1007.6 0.0
26/05:30pm 33.2 28.0 7.2 20 14.6 E 24 32 13 17 1010.8 1007.5 0.0
26/05:00pm 32.8 27.7 7.6 21 14.2 E 24 35 13 19 1010.8 1007.5 0.0
26/04:30pm 33.5 28.4 7.5 20 14.6 E 24 33 13 18 1010.9 1007.6 0.0
26/04:00pm 33.3 29.0 8.0 21 14.4 ESE 20 32 11 17 1011.1 1007.8 0.0
26/03:30pm 32.8 28.4 7.6 21 14.2 ENE 20 32 11 17 1011.4 1008.1 0.0
26/03:00pm 33.5 28.2 6.7 19 14.9 E 24 37 13 20 1011.6 1008.3 0.0
26/02:30pm 33.2 28.0 7.2 20 14.6 E 24 37 13 20 1012.1 1008.7 0.0
26/02:00pm 33.0 26.8 6.3 19 14.7 E 28 35 15 19 1012.3 1008.9 0.0
26/01:30pm 32.1 26.7 6.3 20 14.2 E 24 35 13 19 1012.6 1009.3 0.0
26/01:00pm 31.7 25.6 6.7 21 13.8 ENE 28 41 15 22 1013.1 1009.8 0.0
26/12:30pm 31.2 24.8 7.0 22 13.4 ENE 30 48 16 26 1013.6 1010.3 0.0
26/12:00pm 30.0 23.7 7.2 24 12.6 E 30 41 16 22 1013.9 1010.6 0.0
26/11:30am 29.0 22.4 7.6 26 11.8 E 32 48 17 26 1014.4 1011.0 0.0
26/11:00am 27.8 21.0 7.1 27 11.3 E 32 41 17 22 1015.1 1011.8 0.0
26/10:48am 27.8 21.0 7.1 27 11.3 E 32 50 17 27 1015.2 1011.9 0.0
26/10:30am 27.7 20.9 7.0 27 11.2 E 32 41 17 22 1015.4 1012.1 0.0
26/10:00am 26.9 20.3 7.9 30 10.4 E 32 43 17 23 1015.6 1012.3 0.0
26/09:30am 24.7 18.4 7.4 33 9.3 ESE 30 39 16 21 1016.0 1012.7 0.0
26/09:00am 24.6 17.7 7.3 33 9.3 E 33 48 18 26 1016.2 1012.9 0.0
26/08:30am 23.1 16.2 7.2 36 8.4 ENE 33 41 18 22 1016.5 1013.2 0.0
26/08:00am 21.9 14.6 7.3 39 7.7 E 35 46 19 25 1016.6 1013.3 0.0
26/07:30am 20.8 14.4 7.1 41 7.2 E 30 39 16 21 1016.6 1013.3 0.0
26/07:00am 19.8 13.1 7.2 44 6.6 E 32 43 17 23 1016.6 1013.3 0.0
26/06:30am 19.6 12.7 7.4 45 6.4 E 33 43 18 23 1016.3 1013.0 0.0
26/06:00am 18.5 12.6 7.3 48 5.8 E 28 39 15 21 1016.1 1012.8 0.0
26/05:30am 19.0 13.8 7.1 46 6.2 ESE 24 39 13 21 1015.9 1012.6 0.0
26/05:00am 19.5 12.8 7.3 45 6.3 E 32 48 17 26 1015.5 1012.2 0.0
26/04:52am 19.6 13.7 7.4 45 6.4 E 28 48 15 26 1015.3 1012.0 0.0
26/04:30am 20.1 14.5 7.1 43 6.8 E 26 35 14 19 1015.1 1011.8 0.0
26/04:00am 20.8 14.0 6.7 40 7.3 E 32 44 17 24 1014.8 1011.5 0.0
26/03:30am 22.4 16.2 6.2 35 8.4 ESE 28 41 15 22 1014.6 1011.3 0.0
26/03:00am 23.6 17.3 5.5 31 9.3 E 28 41 15 22 1014.0 1010.7 0.0
26/02:30am 23.9 17.3 6.2 32 9.3 E 30 39 16 21 1014.3 1010.9 0.0
26/02:00am 24.2 17.7 6.5 32 9.3 E 30 41 16 22 1014.3 1010.9 0.0
26/01:30am 24.5 18.0 6.7 32 9.4 E 30 43 16 23 1014.2 1010.8 0.0
26/01:00am 24.8 18.0 7.0 32 9.5 E 32 44 17 24 1014.0 1010.7 0.0
26/12:30am 25.1 19.2 7.3 32 9.6 ESE 28 39 15 21 1014.2 1010.8 0.0
26/12:00am 25.7 20.3 7.8 32 9.7 ESE 26 33 14 18 1014.2 1010.8 0.0
 
Date/Time
WST
Temp
°C
App
Temp
°C
Dew
Point
Rel
Hum
%
Delta-T
°C
Wind Press
QNH
hPa
Press
MSL
hPa
Rain
since 9 am
mm
Dir
 
Spd
km/h
Gust
km/h
Spd
kts
Gust
kts
25/11:30pm 26.3 20.5 7.8 31 10.1 ESE 28 46 15 25 1014.0 1010.7 0.0
25/11:00pm 27.0 22.5 8.4 31 10.3 E 22 32 12 17 1014.2 1010.8 0.0
25/10:30pm 27.2 21.2 8.6 31 10.3 E 30 39 16 21 1013.4 1010.1 0.0
25/10:00pm 27.6 21.0 8.5 30 10.6 ESE 33 41 18 22 1013.1 1009.8 0.0
25/09:50pm 27.8 21.4 8.6 30 10.7 ESE 32 52 17 28 1013.1 1009.8 0.0
25/09:30pm 28.0 23.4 8.3 29 10.9 ESE 22 32 12 17 1013.5 1010.2 0.0
25/09:00pm 28.3 22.9 8.1 28 11.2 E 26 35 14 19 1013.2 1009.9 0.0
25/08:30pm 28.5 23.4 7.7 27 11.5 E 24 32 13 17 1013.1 1009.8 0.0
25/08:00pm 28.7 23.7 7.9 27 11.5 E 24 32 13 17 1012.9 1009.6 0.0
25/07:30pm 28.9 23.5 8.0 27 11.6 E 26 33 14 18 1012.7 1009.4 0.0
25/07:00pm 29.0 23.2 8.1 27 11.6 E 28 37 15 20 1012.5 1009.1 0.0
25/06:30pm 28.8 25.5 9.5 30 11.0 ENE 17 24 9 13 1012.3 1008.9 0.0
25/06:00pm 28.3 24.1 9.6 31 10.6 NE 22 28 12 15 1012.1 1008.7 0.0
25/05:30pm 29.2 24.9 9.3 29 11.3 NE 22 30 12 16 1011.8 1008.5 0.0
25/05:00pm 29.5 25.1 9.1 28 11.6 NNE 22 32 12 17 1012.4 1009.0 0.0
25/04:30pm 29.7 24.3 8.2 26 12.0 NE 26 37 14 20 1012.8 1009.5 0.0
25/04:00pm 30.8 24.4 8.5 25 12.6 ENE 32 39 17 21 1013.0 1009.7 0.0
25/03:30pm 30.8 24.9 9.1 26 12.4 ENE 30 41 16 22 1013.6 1010.3 0.0
25/03:00pm 30.4 24.0 8.7 26 12.3 ENE 32 44 17 24 1013.7 1010.4 0.0
25/02:30pm 29.1 23.5 8.7 28 11.5 ENE 28 39 15 21 1014.3 1010.9 0.0
25/02:00pm 29.1 22.7 8.7 28 11.5 ENE 32 41 17 22 1014.2 1010.8 0.0
25/01:30pm 28.5 22.6 7.7 27 11.5 ENE 28 37 15 20 1014.6 1011.3 0.0
25/01:00pm 29.4 22.8 7.9 26 11.9 E 32 44 17 24 1014.3 1010.9 0.0
25/12:30pm 28.9 22.5 8.6 28 11.4 E 32 44 17 24 1014.4 1011.0 0.0
25/12:18pm 29.4 23.0 8.5 27 11.7 E 32 50 17 27 1014.4 1011.0 0.0
25/12:00pm 29.1 23.1 8.7 28 11.5 E 30 43 16 23 1014.7 1011.4 0.0
25/11:48am 30.4 24.4 8.7 26 12.3 E 30 50 16 27 1015.0 1011.7 0.0
25/11:30am 28.8 22.8 8.5 28 11.4 E 30 44 16 24 1015.5 1012.2 0.0
25/11:00am 28.3 22.0 9.1 30 10.8 E 32 43 17 23 1015.8 1012.5 0.0
25/10:30am 26.4 20.1 8.8 33 9.8 E 32 37 17 20 1016.1 1012.8 0.0
25/10:00am 25.6 20.1 9.0 35 9.2 E 28 39 15 21 1016.6 1013.3 0.0
25/09:30am 25.7 20.3 9.5 36 9.1 ESE 28 39 15 21 1016.8 1013.5 0.0
25/09:00am 23.0 17.2 9.4 42 7.5 ESE 30 41 16 22 1016.6 1013.3 0.0
25/08:30am 21.6 16.2 9.5 46 6.6 ESE 28 39 15 21 1016.6 1013.3 0.0
25/08:00am 21.9 15.6 9.8 46 6.7 E 33 44 18 24 1016.5 1013.2 0.0
25/07:30am 20.9 14.8 9.8 49 6.1 ESE 32 41 17 22 1016.2 1012.9 0.0
25/07:00am 20.3 14.0 9.8 51 5.7 ESE 33 44 18 24 1015.9 1012.6 0.0
25/06:30am 20.2 13.9 9.7 51 5.7 ESE 33 44 18 24 1015.6 1012.3 0.0
25/06:00am 19.4 12.6 9.3 52 5.5 E 35 50 19 27 1015.2 1011.9 0.0
25/05:30am 20.0 13.6 9.3 50 5.8 E 33 46 18 25 1014.9 1011.6 0.0
25/05:00am 20.4 14.1 9.0 48 6.2 ESE 32 44 17 24 1014.5 1011.2 0.0
25/04:30am 21.3 15.0 8.9 45 6.7 ESE 32 44 17 24 1013.9 1010.6 0.0
25/04:19am 21.4 15.8 8.7 44 6.9 ESE 28 46 15 25 1013.7 1010.4 0.0
25/04:00am 22.0 16.1 8.9 43 7.1 E 30 39 16 21 1013.6 1010.3 0.0
25/03:30am 22.7 16.7 8.8 41 7.6 ESE 30 39 16 21 1012.7 1009.4 0.0
25/03:00am 23.7 17.3 8.5 38 8.3 ESE 32 43 17 23 1012.7 1009.4 0.0
25/02:30am 25.0 18.0 6.7 31 9.7 ESE 33 43 18 23 1012.3 1008.9 0.0
25/02:00am 26.2 19.8 5.2 26 11.0 ESE 28 35 15 19 1012.0 1008.6 0.0
25/01:30am 26.8 20.5 5.7 26 11.1 ESE 28 43 15 23 1012.2 1008.8 0.0
25/01:00am 27.3 21.0 5.6 25 11.5 ESE 28 33 15 18 1012.3 1008.9 0.0
25/12:30am 27.7 21.1 5.9 25 11.6 ESE 30 43 16 23 1012.0 1008.6 0.0
25/12:00am 28.3 22.2 6.4 25 11.8 ESE 28 37 15 20 1012.2 1008.8 0.0
 
Date/Time
WST
Temp
°C
App
Temp
°C
Dew
Point
Rel
Hum
%
Delta-T
°C
Wind Press
QNH
hPa
Press
MSL
hPa
Rain
since 9 am
mm
Dir
 
Spd
km/h
Gust
km/h
Spd
kts
Gust
kts
24/11:30pm 28.8 23.1 6.8 25 12.0 ESE 26 37 14 20 1012.1 1008.7 0.0
24/11:00pm 29.4 23.8 7.3 25 12.2 ESE 26 33 14 18 1012.2 1008.8 0.0
24/10:30pm 30.0 24.4 7.2 24 12.6 ESE 26 35 14 19 1012.0 1008.6 0.0
24/10:00pm 30.5 24.1 7.0 23 13.0 ESE 30 39 16 21 1012.0 1008.6 0.0
24/09:30pm 31.1 25.1 6.9 22 13.3 ESE 28 43 15 23 1011.8 1008.5 0.0
24/09:00pm 32.1 26.3 6.3 20 14.2 SE 26 35 14 19 1011.7 1008.4 0.0
24/08:30pm 32.6 25.6 6.0 19 14.6 ESE 32 43 17 23 1011.4 1008.1 0.0

Other Formats:

Comma delimited format used in spreadsheet applications
http://www.bom.gov.au/fwo/IDW60801/IDW60801.94449.axf

JavaScript Object Notation format (JSON) in row-major order
http://www.bom.gov.au/fwo/IDW60801/IDW60801.94449.json